createdAt,value
2023-02-12T00:00:29.269Z,5.47
2023-02-12T00:01:28.262Z,5.61
2023-02-12T00:02:28.326Z,5.55
2023-02-12T00:03:28.258Z,5.62
2023-02-12T00:04:28.224Z,5.72
2023-02-12T00:05:28.214Z,5.69
2023-02-12T00:06:28.230Z,5.76
2023-02-12T00:07:28.200Z,5.79
2023-02-12T00:08:28.175Z,5.83
2023-02-12T00:09:28.201Z,5.84
2023-02-12T00:10:28.159Z,5.87
2023-02-12T00:11:28.180Z,5.92
2023-02-12T00:12:28.166Z,5.90
2023-02-12T00:13:28.141Z,5.97
2023-02-12T00:14:28.126Z,5.98
2023-02-12T00:15:28.134Z,6.01
2023-02-12T00:16:28.090Z,5.92
2023-02-12T00:17:28.080Z,5.98
2023-02-12T00:18:28.072Z,5.98
2023-02-12T00:19:28.072Z,6.01
2023-02-12T00:20:28.069Z,5.94
2023-02-12T00:21:28.057Z,6.02
2023-02-12T00:22:28.036Z,6.10
2023-02-12T00:23:28.036Z,5.98
2023-02-12T00:24:28.016Z,6.12
2023-02-12T00:25:28.012Z,6.06
2023-02-12T00:26:28.003Z,6.09
2023-02-12T00:27:27.981Z,6.07
2023-02-12T00:28:28.007Z,6.06
2023-02-12T00:29:27.961Z,6.12
2023-02-12T00:30:27.975Z,6.19
2023-02-12T00:31:28.155Z,6.12
2023-02-12T00:32:27.923Z,6.22
2023-02-12T00:33:27.917Z,6.19
2023-02-12T00:34:27.918Z,6.19
2023-02-12T00:35:27.901Z,6.25
2023-02-12T00:36:27.882Z,6.29
2023-02-12T00:37:27.882Z,6.22
2023-02-12T00:38:59.789Z,6.22
2023-02-12T00:39:27.873Z,6.26
2023-02-12T00:40:27.860Z,6.20
2023-02-12T00:41:27.839Z,6.26
2023-02-12T00:42:28.833Z,6.28
2023-02-12T00:43:27.786Z,6.19
2023-02-12T00:44:27.810Z,6.15
2023-02-12T00:45:27.799Z,6.13
2023-02-12T00:46:27.849Z,6.19
2023-02-12T00:47:27.751Z,6.12
2023-02-12T00:48:27.753Z,6.19
2023-02-12T00:49:27.760Z,6.15
2023-02-12T00:50:30.103Z,6.15
2023-02-12T00:51:27.765Z,6.16
2023-02-12T00:52:27.734Z,6.25
2023-02-12T00:53:27.698Z,6.15
2023-02-12T00:54:27.694Z,6.15
2023-02-12T00:55:27.706Z,6.29
2023-02-12T00:56:27.687Z,6.12
2023-02-12T00:57:27.666Z,6.07
2023-02-12T00:58:27.738Z,6.06
2023-02-12T00:59:27.635Z,6.07
2023-02-12T01:00:27.625Z,6.17
2023-02-12T01:01:27.709Z,6.10
2023-02-12T01:02:27.631Z,6.12
2023-02-12T01:03:27.589Z,6.29
2023-02-12T01:04:27.611Z,6.16
2023-02-12T01:05:27.701Z,6.22
2023-02-12T01:06:27.582Z,6.20
2023-02-12T01:07:27.564Z,6.22
2023-02-12T01:08:27.560Z,6.31
2023-02-12T01:09:27.587Z,6.29
2023-02-12T01:10:27.560Z,6.22
2023-02-12T01:11:27.513Z,6.20
2023-02-12T01:12:27.516Z,6.28
2023-02-12T01:13:27.525Z,6.34
2023-02-12T01:14:27.489Z,6.26
2023-02-12T01:15:27.501Z,6.31
2023-02-12T01:16:27.516Z,6.41
2023-02-12T01:17:27.452Z,6.35
2023-02-12T01:18:27.448Z,6.29
2023-02-12T01:19:27.466Z,6.36
2023-02-12T01:20:27.428Z,6.36
2023-02-12T01:21:28.401Z,6.43
2023-02-12T01:22:27.450Z,6.44
2023-02-12T01:23:27.382Z,6.46
2023-02-12T01:24:27.388Z,6.46
2023-02-12T01:25:27.430Z,6.46
2023-02-12T01:26:27.399Z,6.36
2023-02-12T01:27:27.332Z,6.46
2023-02-12T01:28:27.381Z,6.41
2023-02-12T01:29:27.352Z,6.41
2023-02-12T01:30:27.306Z,6.38
2023-02-12T01:31:27.408Z,6.36
2023-02-12T01:32:27.308Z,6.35
2023-02-12T01:33:27.270Z,6.41
2023-02-12T01:34:27.281Z,6.25
2023-02-12T01:35:27.279Z,6.39
2023-02-12T01:36:27.274Z,6.32
2023-02-12T01:37:27.229Z,6.44
2023-02-12T01:38:28.229Z,6.46
2023-02-12T01:39:27.211Z,6.28
2023-02-12T01:40:27.211Z,6.38
2023-02-12T01:41:27.257Z,6.50
2023-02-12T01:42:27.216Z,6.50
2023-02-12T01:43:27.175Z,6.43
2023-02-12T01:44:27.166Z,6.38
2023-02-12T01:45:27.174Z,6.47
2023-02-12T01:46:27.188Z,6.49
2023-02-12T01:47:27.145Z,6.35
2023-02-12T01:48:27.122Z,6.43
2023-02-12T01:49:27.110Z,6.32
2023-02-12T01:50:27.098Z,6.32
2023-02-12T01:51:27.124Z,6.31
2023-02-12T01:52:27.091Z,6.43
2023-02-12T01:53:27.065Z,6.32
2023-02-12T01:54:27.071Z,6.32
2023-02-12T01:55:27.031Z,6.19
2023-02-12T01:56:27.045Z,6.29
2023-02-12T01:57:27.042Z,6.26
2023-02-12T01:58:27.020Z,6.28
2023-02-12T01:59:27.001Z,6.35
2023-02-12T02:00:27.014Z,6.26
2023-02-12T02:01:27.122Z,6.46
2023-02-12T02:02:26.998Z,6.39
2023-02-12T02:03:27.025Z,6.39
2023-02-12T02:04:26.956Z,6.29
2023-02-12T02:05:26.945Z,6.29
2023-02-12T02:06:26.935Z,6.41
2023-02-12T02:07:26.935Z,6.43
2023-02-12T02:08:26.923Z,6.38
2023-02-12T02:09:26.886Z,6.43
2023-02-12T02:10:26.884Z,6.36
2023-02-12T02:11:26.926Z,6.32
2023-02-12T02:12:26.903Z,6.47
2023-02-12T02:13:26.840Z,6.38
2023-02-12T02:14:26.846Z,6.46
2023-02-12T02:15:26.846Z,6.46
2023-02-12T02:16:26.888Z,6.32
2023-02-12T02:17:26.806Z,6.39
2023-02-12T02:18:26.820Z,6.36
2023-02-12T02:19:26.770Z,6.29
2023-02-12T02:20:26.790Z,6.32
2023-02-12T02:21:27.779Z,6.17
2023-02-12T02:22:26.758Z,6.17
2023-02-12T02:23:26.729Z,6.06
2023-02-12T02:24:26.759Z,5.97
2023-02-12T02:25:26.762Z,5.77
2023-02-12T02:26:26.695Z,5.90
2023-02-12T02:27:26.721Z,5.94
2023-02-12T02:28:26.790Z,6.01
2023-02-12T02:29:26.672Z,6.01
2023-02-12T02:30:26.678Z,6.10
2023-02-12T02:31:26.891Z,6.13
2023-02-12T02:32:26.643Z,6.13
2023-02-12T02:33:26.611Z,6.15
2023-02-12T02:34:26.672Z,6.26
2023-02-12T02:35:26.592Z,6.25
2023-02-12T02:36:26.597Z,6.29
2023-02-12T02:37:26.606Z,6.22
2023-02-12T02:38:26.577Z,6.26
2023-02-12T02:39:26.586Z,6.34
2023-02-12T02:40:26.558Z,6.32
2023-02-12T02:41:27.580Z,6.43
2023-02-12T02:42:26.551Z,6.28
2023-02-12T02:43:26.529Z,6.31
2023-02-12T02:44:26.545Z,6.34
2023-02-12T02:45:26.520Z,6.41
2023-02-12T02:46:26.553Z,6.34
2023-02-12T02:47:26.472Z,6.35
2023-02-12T02:48:26.482Z,6.26
2023-02-12T02:49:26.474Z,6.29
2023-02-12T02:50:26.461Z,6.26
2023-02-12T02:51:26.482Z,6.31
2023-02-12T02:52:26.439Z,6.31
2023-02-12T02:53:26.400Z,6.26
2023-02-12T02:54:26.413Z,6.36
2023-02-12T02:55:26.417Z,6.36
2023-02-12T02:56:26.404Z,6.35
2023-02-12T02:57:26.391Z,6.38
2023-02-12T02:58:26.390Z,6.22
2023-02-12T02:59:26.329Z,6.13
2023-02-12T03:00:26.379Z,5.91
2023-02-12T03:01:26.440Z,5.87
2023-02-12T03:02:26.338Z,5.83
2023-02-12T03:03:26.390Z,5.95
2023-02-12T03:04:26.303Z,6.01
2023-02-12T03:05:26.303Z,6.07
2023-02-12T03:06:26.267Z,6.09
2023-02-12T03:07:26.315Z,6.02
2023-02-12T03:08:26.269Z,6.20
2023-02-12T03:09:26.227Z,6.13
2023-02-12T03:10:26.238Z,5.99
2023-02-12T03:11:26.277Z,6.07
2023-02-12T03:12:26.229Z,6.12
2023-02-12T03:13:26.217Z,6.07
2023-02-12T03:14:26.193Z,6.25
2023-02-12T03:15:26.200Z,6.20
2023-02-12T03:16:26.205Z,6.22
2023-02-12T03:17:26.155Z,6.19
2023-02-12T03:18:26.137Z,6.22
2023-02-12T03:19:26.190Z,6.29
2023-02-12T03:20:26.133Z,6.29
2023-02-12T03:21:26.120Z,6.32
2023-02-12T03:22:26.123Z,6.32
2023-02-12T03:23:26.093Z,6.34
2023-02-12T03:24:26.092Z,6.35
2023-02-12T03:25:26.106Z,6.35
2023-02-12T03:26:26.068Z,6.29
2023-02-12T03:27:26.050Z,6.28
2023-02-12T03:28:26.060Z,6.31
2023-02-12T03:29:26.067Z,6.31
2023-02-12T03:30:26.169Z,6.31
2023-02-12T03:31:26.062Z,6.16
2023-02-12T03:32:26.047Z,6.16
2023-02-12T03:33:25.980Z,6.17
2023-02-12T03:34:25.975Z,6.19
2023-02-12T03:35:25.995Z,6.17
2023-02-12T03:36:25.960Z,6.12
2023-02-12T03:37:25.960Z,6.09
2023-02-12T03:38:25.957Z,5.99
2023-02-12T03:39:25.910Z,5.97
2023-02-12T03:40:25.932Z,5.98
2023-02-12T03:41:26.386Z,5.88
2023-02-12T03:42:25.914Z,5.90
2023-02-12T03:43:25.867Z,5.94
2023-02-12T03:44:25.902Z,5.88
2023-02-12T03:45:25.908Z,5.90
2023-02-12T03:46:25.906Z,5.90
2023-02-12T03:47:25.846Z,5.94
2023-02-12T03:48:25.826Z,5.97
2023-02-12T03:49:25.862Z,6.01
2023-02-12T03:50:25.813Z,5.98
2023-02-12T03:51:25.819Z,6.02
2023-02-12T03:52:25.785Z,5.99
2023-02-12T03:53:25.803Z,5.98
2023-02-12T03:54:25.747Z,5.97
2023-02-12T03:55:25.846Z,5.99
2023-02-12T03:56:25.771Z,5.99
2023-02-12T03:57:25.720Z,6.10
2023-02-12T03:58:25.729Z,6.02
2023-02-12T03:59:25.739Z,6.05
2023-02-12T04:00:25.726Z,6.01
2023-02-12T04:01:30.004Z,5.90
2023-02-12T04:02:25.695Z,5.92
2023-02-12T04:03:25.661Z,5.84
2023-02-12T04:04:25.731Z,5.91
2023-02-12T04:05:25.671Z,5.77
2023-02-12T04:06:25.702Z,5.80
2023-02-12T04:07:25.608Z,5.73
2023-02-12T04:08:25.618Z,5.69
2023-02-12T04:09:25.627Z,5.67
2023-02-12T04:10:25.577Z,5.64
2023-02-12T04:11:25.614Z,5.62
2023-02-12T04:12:25.605Z,5.73
2023-02-12T04:13:25.549Z,5.74
2023-02-12T04:14:25.579Z,5.74
2023-02-12T04:15:25.556Z,5.74
2023-02-12T04:16:25.549Z,5.83
2023-02-12T04:17:25.522Z,5.95
2023-02-12T04:18:25.507Z,5.90
2023-02-12T04:19:25.513Z,5.88
2023-02-12T04:20:25.516Z,5.77
2023-02-12T04:21:25.478Z,5.79
2023-02-12T04:22:25.491Z,5.79
2023-02-12T04:23:25.481Z,5.79
2023-02-12T04:24:25.454Z,5.76
2023-02-12T04:25:25.414Z,5.80
2023-02-12T04:26:25.463Z,5.87
2023-02-12T04:27:25.415Z,5.87
2023-02-12T04:28:25.503Z,5.72
2023-02-12T04:29:25.433Z,5.76
2023-02-12T04:30:25.570Z,5.69
2023-02-12T04:31:25.447Z,5.79
2023-02-12T04:32:25.366Z,5.74
2023-02-12T04:33:25.370Z,5.74
2023-02-12T04:34:25.336Z,5.77
2023-02-12T04:35:25.391Z,5.83
2023-02-12T04:36:25.334Z,5.84
2023-02-12T04:37:25.292Z,5.87
2023-02-12T04:38:25.322Z,5.97
2023-02-12T04:39:25.330Z,5.92
2023-02-12T04:40:25.301Z,5.92
2023-02-12T04:41:25.292Z,5.98
2023-02-12T04:42:25.283Z,5.98
2023-02-12T04:43:25.235Z,5.95
2023-02-12T04:44:25.244Z,5.95
2023-02-12T04:45:25.273Z,5.90
2023-02-12T04:46:25.287Z,5.95
2023-02-12T04:47:25.200Z,6.06
2023-02-12T04:48:25.213Z,6.02
2023-02-12T04:49:25.270Z,5.99
2023-02-12T04:50:25.193Z,6.01
2023-02-12T04:51:25.160Z,5.95
2023-02-12T04:52:25.166Z,5.99
2023-02-12T04:53:25.198Z,5.90
2023-02-12T04:54:25.159Z,5.87
2023-02-12T04:55:25.105Z,5.80
2023-02-12T04:56:26.116Z,5.77
2023-02-12T04:57:25.127Z,5.73
2023-02-12T04:58:25.104Z,5.73
2023-02-12T04:59:25.106Z,5.74
2023-02-12T05:00:25.103Z,5.72
2023-02-12T05:01:25.106Z,5.64
2023-02-12T05:02:25.068Z,5.54
2023-02-12T05:03:25.065Z,5.54
2023-02-12T05:04:25.047Z,5.51
2023-02-12T05:05:25.065Z,5.55
2023-02-12T05:06:25.043Z,5.46
2023-02-12T05:07:25.021Z,5.58
2023-02-12T05:08:24.987Z,5.61
2023-02-12T05:09:24.999Z,5.47
2023-02-12T05:10:24.989Z,5.49
2023-02-12T05:11:24.960Z,5.56
2023-02-12T05:12:24.966Z,5.43
2023-02-12T05:13:24.978Z,5.56
2023-02-12T05:14:24.939Z,5.58
2023-02-12T05:15:24.944Z,5.56
2023-02-12T05:16:24.922Z,5.56
2023-02-12T05:17:24.901Z,5.61
2023-02-12T05:18:24.889Z,5.58
2023-02-12T05:19:24.905Z,5.67
2023-02-12T05:20:24.876Z,5.65
2023-02-12T05:21:24.856Z,5.67
2023-02-12T05:22:24.864Z,5.64
2023-02-12T05:23:24.854Z,5.69
2023-02-12T05:24:24.844Z,5.69
2023-02-12T05:25:24.800Z,5.61
2023-02-12T05:26:24.816Z,5.69
2023-02-12T05:27:24.826Z,5.73
2023-02-12T05:28:24.848Z,5.64
2023-02-12T05:29:24.771Z,5.61
2023-02-12T05:30:24.774Z,5.62
2023-02-12T05:31:24.943Z,5.56
2023-02-12T05:32:24.748Z,5.62
2023-02-12T05:33:24.747Z,5.49
2023-02-12T05:34:24.753Z,5.38
2023-02-12T05:35:24.704Z,5.44
2023-02-12T05:36:24.719Z,5.47
2023-02-12T05:37:24.715Z,5.52
2023-02-12T05:38:24.664Z,5.49
2023-02-12T05:39:24.703Z,5.52
2023-02-12T05:40:24.667Z,5.61
2023-02-12T05:41:24.638Z,5.64
2023-02-12T05:42:24.638Z,5.61
2023-02-12T05:43:24.654Z,5.73
2023-02-12T05:44:24.631Z,5.69
2023-02-12T05:45:24.584Z,5.77
2023-02-12T05:46:24.648Z,5.73
2023-02-12T05:47:24.574Z,5.72
2023-02-12T05:48:24.565Z,5.79
2023-02-12T05:49:24.582Z,5.70
2023-02-12T05:50:25.556Z,5.67
2023-02-12T05:51:24.535Z,5.90
2023-02-12T05:52:24.523Z,5.83
2023-02-12T05:53:24.556Z,5.81
2023-02-12T05:54:24.486Z,5.80
2023-02-12T05:55:24.515Z,5.87
2023-02-12T05:56:24.509Z,5.91
2023-02-12T05:57:24.487Z,5.88
2023-02-12T05:58:24.485Z,5.90
2023-02-12T05:59:24.491Z,5.99
2023-02-12T06:00:24.453Z,6.05
2023-02-12T06:01:24.427Z,6.02
2023-02-12T06:02:24.558Z,5.95
2023-02-12T06:03:24.401Z,5.92
2023-02-12T06:04:24.503Z,6.02
2023-02-12T06:05:24.407Z,5.97
2023-02-12T06:06:24.391Z,5.95
2023-02-12T06:07:24.381Z,6.02
2023-02-12T06:08:24.355Z,5.91
2023-02-12T06:09:24.385Z,5.98
2023-02-12T06:10:24.428Z,5.87
2023-02-12T06:11:24.345Z,5.80
2023-02-12T06:12:24.327Z,5.76
2023-02-12T06:13:24.304Z,5.81
2023-02-12T06:14:24.300Z,5.81
2023-02-12T06:15:25.313Z,5.83
2023-02-12T06:16:24.371Z,5.90
2023-02-12T06:17:24.252Z,5.91
2023-02-12T06:18:24.290Z,5.92
2023-02-12T06:19:24.266Z,5.84
2023-02-12T06:20:24.279Z,5.87
2023-02-12T06:21:24.271Z,5.94
2023-02-12T06:22:24.220Z,6.01
2023-02-12T06:23:24.227Z,5.95
2023-02-12T06:24:24.211Z,5.90
2023-02-12T06:25:24.208Z,5.90
2023-02-12T06:26:24.182Z,5.91
2023-02-12T06:27:24.145Z,6.02
2023-02-12T06:28:24.254Z,6.05
2023-02-12T06:29:24.180Z,6.01
2023-02-12T06:30:24.135Z,6.02
2023-02-12T06:31:24.256Z,6.01
2023-02-12T06:32:24.111Z,6.07
2023-02-12T06:33:24.164Z,6.02
2023-02-12T06:34:24.087Z,5.91
2023-02-12T06:35:24.102Z,6.01
2023-02-12T06:36:24.093Z,5.97
2023-02-12T06:37:24.064Z,6.10
2023-02-12T06:38:24.048Z,6.07
2023-02-12T06:39:24.085Z,6.05
2023-02-12T06:40:24.042Z,6.09
2023-02-12T06:41:24.021Z,6.13
2023-02-12T06:42:24.032Z,6.16
2023-02-12T06:43:24.004Z,6.12
2023-02-12T06:44:24.004Z,6.12
2023-02-12T06:45:24.022Z,6.05
2023-02-12T06:46:24.058Z,6.09
2023-02-12T06:47:23.950Z,5.99
2023-02-12T06:48:23.964Z,5.91
2023-02-12T06:49:23.980Z,5.87
2023-02-12T06:50:23.914Z,5.83
2023-02-12T06:51:23.953Z,5.77
2023-02-12T06:52:23.921Z,5.61
2023-02-12T06:53:23.896Z,5.62
2023-02-12T06:54:23.906Z,5.62
2023-02-12T06:55:23.901Z,5.69
2023-02-12T06:56:23.885Z,5.62
2023-02-12T06:57:23.853Z,5.65
2023-02-12T06:58:23.855Z,5.76
2023-02-12T06:59:23.879Z,5.79
2023-02-12T07:00:23.845Z,5.80
2023-02-12T07:01:23.822Z,5.74
2023-02-12T07:02:23.818Z,5.74
2023-02-12T07:03:24.823Z,5.72
2023-02-12T07:04:23.835Z,5.70
2023-02-12T07:05:23.767Z,5.77
2023-02-12T07:06:23.787Z,5.69
2023-02-12T07:07:23.761Z,5.80
2023-02-12T07:08:23.751Z,5.74
2023-02-12T07:09:23.760Z,5.84
2023-02-12T07:10:23.753Z,5.79
2023-02-12T07:11:23.697Z,5.90
2023-02-12T07:12:23.700Z,5.95
2023-02-12T07:13:23.717Z,6.02
2023-02-12T07:14:23.680Z,6.02
2023-02-12T07:15:23.700Z,6.02
2023-02-12T07:16:23.714Z,6.05
2023-02-12T07:17:23.654Z,6.06
2023-02-12T07:18:23.662Z,6.13
2023-02-12T07:19:23.663Z,6.17
2023-02-12T07:20:23.631Z,6.06
2023-02-12T07:21:23.593Z,6.19
2023-02-12T07:22:23.618Z,6.22
2023-02-12T07:23:23.597Z,6.19
2023-02-12T07:24:23.575Z,6.29
2023-02-12T07:25:23.591Z,6.36
2023-02-12T07:26:23.570Z,6.28
2023-02-12T07:27:23.531Z,6.32
2023-02-12T07:28:23.569Z,6.47
2023-02-12T07:29:23.548Z,6.34
2023-02-12T07:30:23.524Z,6.35
2023-02-12T07:31:23.700Z,6.32
2023-02-12T07:32:23.505Z,6.36
2023-02-12T07:33:23.518Z,6.38
2023-02-12T07:34:23.497Z,6.46
2023-02-12T07:35:23.456Z,6.43
2023-02-12T07:36:23.438Z,6.36
2023-02-12T07:37:24.482Z,6.44
2023-02-12T07:38:23.437Z,6.38
2023-02-12T07:39:23.450Z,6.49
2023-02-12T07:40:23.416Z,6.53
2023-02-12T07:41:23.400Z,6.50
2023-02-12T07:42:23.394Z,6.50
2023-02-12T07:43:23.387Z,6.52
2023-02-12T07:44:23.399Z,6.47
2023-02-12T07:45:23.368Z,6.54
2023-02-12T07:46:23.358Z,6.54
2023-02-12T07:47:23.356Z,6.59
2023-02-12T07:48:23.338Z,6.68
2023-02-12T07:49:23.331Z,6.68
2023-02-12T07:50:23.313Z,6.75
2023-02-12T07:51:23.303Z,6.67
2023-02-12T07:52:23.280Z,6.77
2023-02-12T07:53:23.299Z,6.64
2023-02-12T07:54:23.259Z,6.78
2023-02-12T07:55:23.265Z,6.78
2023-02-12T07:56:23.255Z,6.72
2023-02-12T07:57:23.213Z,6.70
2023-02-12T07:58:23.212Z,6.64
2023-02-12T07:59:23.243Z,6.74
2023-02-12T08:00:23.212Z,6.70
2023-02-12T08:01:23.163Z,6.77
2023-02-12T08:02:23.249Z,6.85
2023-02-12T08:03:23.199Z,6.80
2023-02-12T08:04:23.217Z,6.59
2023-02-12T08:05:23.137Z,6.77
2023-02-12T08:06:23.223Z,6.78
2023-02-12T08:07:23.136Z,6.83
2023-02-12T08:08:23.133Z,6.86
2023-02-12T08:09:23.102Z,6.87
2023-02-12T08:10:23.104Z,6.65
2023-02-12T08:11:23.059Z,6.77
2023-02-12T08:12:23.060Z,6.82
2023-02-12T08:13:23.074Z,6.77
2023-02-12T08:14:23.060Z,6.78
2023-02-12T08:15:23.016Z,6.54
2023-02-12T08:16:23.030Z,6.47
2023-02-12T08:17:23.028Z,6.53
2023-02-12T08:18:22.992Z,6.54
2023-02-12T08:19:26.367Z,6.62
2023-02-12T08:20:24.011Z,6.70
2023-02-12T08:21:22.980Z,6.72
2023-02-12T08:22:22.959Z,6.72
2023-02-12T08:23:23.983Z,6.72
2023-02-12T08:24:22.955Z,6.68
2023-02-12T08:25:22.913Z,6.65
2023-02-12T08:26:22.950Z,6.67
2023-02-12T08:27:22.907Z,6.67
2023-02-12T08:28:22.989Z,6.78
2023-02-12T08:29:22.901Z,6.85
2023-02-12T08:30:22.875Z,6.80
2023-02-12T08:31:23.008Z,6.96
2023-02-12T08:32:22.879Z,7.03
2023-02-12T08:33:22.867Z,7.08
2023-02-12T08:34:22.845Z,7.18
2023-02-12T08:35:22.796Z,7.25
2023-02-12T08:36:22.799Z,7.29
2023-02-12T08:37:22.805Z,7.28
2023-02-12T08:38:22.798Z,7.21
2023-02-12T08:39:22.768Z,7.25
2023-02-12T08:40:22.771Z,7.22
2023-02-12T08:41:22.760Z,7.26
2023-02-12T08:42:22.714Z,7.23
2023-02-12T08:43:22.749Z,7.21
2023-02-12T08:44:22.721Z,7.26
2023-02-12T08:45:22.698Z,7.28
2023-02-12T08:46:22.791Z,7.18
2023-02-12T08:47:22.695Z,7.15
2023-02-12T08:48:22.679Z,7.03
2023-02-12T08:49:22.635Z,6.92
2023-02-12T08:50:22.660Z,6.92
2023-02-12T08:51:22.620Z,7.01
2023-02-12T08:52:22.614Z,6.97
2023-02-12T08:53:22.667Z,6.95
2023-02-12T08:54:22.597Z,6.97
2023-02-12T08:55:22.563Z,7.15
2023-02-12T08:56:22.566Z,7.07
2023-02-12T08:57:22.574Z,7.01
2023-02-12T08:58:22.538Z,6.97
2023-02-12T08:59:22.553Z,7.05
2023-02-12T09:00:22.521Z,7.00
2023-02-12T09:01:23.609Z,7.07
2023-02-12T09:02:22.555Z,7.00
2023-02-12T09:03:22.523Z,7.01
2023-02-12T09:04:22.503Z,6.93
2023-02-12T09:05:22.454Z,6.96
2023-02-12T09:06:22.469Z,7.21
2023-02-12T09:07:22.474Z,7.28
2023-02-12T09:08:22.439Z,7.33
2023-02-12T09:09:22.445Z,7.26
2023-02-12T09:10:22.405Z,7.07
2023-02-12T09:11:22.428Z,7.08
2023-02-12T09:12:22.415Z,7.10
2023-02-12T09:13:22.360Z,6.83
2023-02-12T09:14:22.386Z,6.87
2023-02-12T09:15:22.342Z,6.86
2023-02-12T09:16:22.432Z,6.78
2023-02-12T09:17:22.375Z,6.85
2023-02-12T09:18:22.335Z,6.87
2023-02-12T09:19:22.320Z,6.74
2023-02-12T09:20:22.305Z,6.86
2023-02-12T09:21:22.306Z,6.75
2023-02-12T09:22:22.306Z,6.85
2023-02-12T09:23:22.278Z,6.78
2023-02-12T09:24:22.259Z,6.83
2023-02-12T09:25:22.249Z,6.90
2023-02-12T09:26:22.240Z,6.90
2023-02-12T09:27:22.247Z,6.93
2023-02-12T09:28:22.247Z,7.05
2023-02-12T09:29:22.192Z,7.05
2023-02-12T09:30:22.230Z,7.21
2023-02-12T09:31:22.368Z,7.33
2023-02-12T09:32:22.164Z,7.43
2023-02-12T09:33:22.205Z,7.37
2023-02-12T09:34:22.193Z,7.41
2023-02-12T09:35:22.128Z,7.47
2023-02-12T09:36:22.156Z,7.37
2023-02-12T09:37:22.190Z,7.22
2023-02-12T09:38:22.118Z,7.21
2023-02-12T09:39:22.115Z,7.19
2023-02-12T09:40:22.116Z,7.43
2023-02-12T09:41:22.109Z,7.50
2023-02-12T09:42:22.075Z,7.50
2023-02-12T09:43:22.067Z,7.53
2023-02-12T09:44:22.064Z,7.64
2023-02-12T09:45:22.064Z,7.70
2023-02-12T09:46:22.077Z,7.78
2023-02-12T09:47:22.030Z,7.58
2023-02-12T09:48:22.019Z,7.50
2023-02-12T09:49:22.040Z,7.50
2023-02-12T09:50:21.989Z,7.48
2023-02-12T09:51:21.996Z,7.50
2023-02-12T09:52:21.995Z,7.36
2023-02-12T09:53:21.942Z,7.36
2023-02-12T09:54:21.986Z,7.44
2023-02-12T09:55:21.924Z,7.41
2023-02-12T09:56:21.938Z,7.37
2023-02-12T09:57:21.951Z,7.40
2023-02-12T09:58:21.924Z,7.36
2023-02-12T09:59:21.952Z,7.33
2023-02-12T10:00:21.886Z,7.44
2023-02-12T10:01:21.928Z,7.33
2023-02-12T10:02:21.863Z,7.53
2023-02-12T10:03:21.888Z,7.50
2023-02-12T10:04:27.830Z,7.53
2023-02-12T10:05:22.822Z,7.51
2023-02-12T10:06:21.803Z,7.51
2023-02-12T10:07:21.841Z,7.62
2023-02-12T10:08:24.562Z,7.75
2023-02-12T10:09:22.838Z,7.61
2023-02-12T10:10:21.790Z,7.85
2023-02-12T10:11:21.757Z,7.78
2023-02-12T10:12:21.775Z,7.91
2023-02-12T10:13:21.769Z,7.99
2023-02-12T10:14:21.741Z,7.78
2023-02-12T10:15:21.728Z,7.81
2023-02-12T10:16:21.755Z,7.81
2023-02-12T10:17:21.729Z,7.96
2023-02-12T10:18:21.724Z,8.05
2023-02-12T10:19:21.700Z,8.17
2023-02-12T10:20:21.659Z,8.32
2023-02-12T10:21:21.678Z,8.38
2023-02-12T10:22:21.640Z,8.49
2023-02-12T10:23:21.650Z,8.57
2023-02-12T10:24:21.649Z,8.60
2023-02-12T10:25:21.644Z,8.75
2023-02-12T10:26:21.613Z,8.87
2023-02-12T10:27:21.576Z,9.08
2023-02-12T10:28:22.620Z,9.12
2023-02-12T10:29:21.608Z,9.33
2023-02-12T10:30:21.581Z,9.18
2023-02-12T10:31:21.643Z,9.31
2023-02-12T10:32:21.564Z,9.13
2023-02-12T10:33:21.540Z,9.03
2023-02-12T10:34:21.503Z,8.95
2023-02-12T10:35:21.536Z,9.11
2023-02-12T10:36:21.510Z,9.21
2023-02-12T10:37:21.492Z,9.27
2023-02-12T10:38:21.470Z,9.40
2023-02-12T10:39:21.498Z,9.47
2023-02-12T10:40:21.444Z,9.47
2023-02-12T10:41:21.419Z,9.56
2023-02-12T10:42:21.426Z,9.55
2023-02-12T10:43:21.438Z,9.64
2023-02-12T10:44:21.404Z,9.59
2023-02-12T10:45:21.388Z,9.48
2023-02-12T10:46:21.441Z,9.62
2023-02-12T10:47:21.372Z,9.63
2023-02-12T10:48:21.359Z,9.80
2023-02-12T10:49:21.317Z,9.80
2023-02-12T10:50:21.343Z,9.84
2023-02-12T10:51:21.317Z,9.95
2023-02-12T10:52:21.302Z,9.91
2023-02-12T10:53:21.311Z,10.00
2023-02-12T10:54:21.292Z,10.00
2023-02-12T10:55:21.262Z,10.06
2023-02-12T10:56:21.299Z,10.02
2023-02-12T10:57:21.265Z,9.82
2023-02-12T10:58:21.227Z,9.90
2023-02-12T10:59:21.265Z,9.95
2023-02-12T11:00:21.240Z,9.84
2023-02-12T11:01:21.208Z,9.87
2023-02-12T11:02:21.205Z,9.88
2023-02-12T11:03:21.207Z,9.88
2023-02-12T11:04:21.192Z,9.87
2023-02-12T11:05:21.240Z,9.69
2023-02-12T11:06:21.179Z,9.58
2023-02-12T11:07:21.138Z,9.64
2023-02-12T11:08:21.143Z,9.74
2023-02-12T11:09:21.126Z,9.81
2023-02-12T11:10:21.255Z,9.87
2023-02-12T11:11:21.084Z,9.94
2023-02-12T11:12:21.088Z,9.97
2023-02-12T11:13:21.081Z,10.05
2023-02-12T11:14:21.089Z,10.02
2023-02-12T11:15:21.039Z,10.03
2023-02-12T11:16:21.148Z,9.85
2023-02-12T11:17:21.049Z,9.76
2023-02-12T11:18:21.021Z,9.52
2023-02-12T11:19:21.476Z,9.54
2023-02-12T11:20:21.085Z,9.48
2023-02-12T11:21:22.007Z,9.37
2023-02-12T11:22:20.969Z,9.26
2023-02-12T11:23:20.970Z,9.21
2023-02-12T11:24:20.988Z,9.12
2023-02-12T11:25:20.952Z,9.21
2023-02-12T11:26:20.922Z,9.29
2023-02-12T11:27:20.943Z,9.31
2023-02-12T11:28:21.044Z,9.36
2023-02-12T11:29:20.899Z,9.62
2023-02-12T11:30:21.057Z,9.39
2023-02-12T11:31:21.093Z,9.37
2023-02-12T11:32:20.873Z,9.54
2023-02-12T11:33:20.868Z,9.56
2023-02-12T11:34:20.868Z,9.58
2023-02-12T11:35:20.827Z,9.58
2023-02-12T11:36:20.818Z,9.74
2023-02-12T11:37:20.837Z,9.59
2023-02-12T11:38:20.774Z,9.72
2023-02-12T11:39:20.801Z,9.63
2023-02-12T11:40:21.841Z,9.76
2023-02-12T11:41:20.757Z,9.74
2023-02-12T11:42:20.754Z,9.85
2023-02-12T11:43:20.761Z,9.73
2023-02-12T11:44:20.774Z,9.64
2023-02-12T11:45:20.724Z,9.69
2023-02-12T11:46:20.824Z,9.64
2023-02-12T11:47:20.750Z,9.59
2023-02-12T11:48:20.716Z,9.73
2023-02-12T11:49:20.673Z,9.63
2023-02-12T11:50:20.684Z,9.51
2023-02-12T11:51:20.669Z,9.51
2023-02-12T11:52:20.645Z,9.64
2023-02-12T11:53:20.652Z,9.55
2023-02-12T11:54:20.644Z,9.62
2023-02-12T11:55:20.583Z,9.66
2023-02-12T11:56:20.601Z,9.55
2023-02-12T11:57:20.593Z,9.36
2023-02-12T11:58:20.586Z,9.11
2023-02-12T11:59:20.552Z,9.16
2023-02-12T12:00:20.543Z,9.29
2023-02-12T12:01:20.562Z,9.29
2023-02-12T12:02:20.601Z,9.37
2023-02-12T12:03:20.607Z,9.40
2023-02-12T12:04:20.520Z,9.44
2023-02-12T12:05:20.492Z,9.59
2023-02-12T12:06:20.479Z,9.45
2023-02-12T12:07:20.495Z,9.62
2023-02-12T12:08:20.476Z,9.64
2023-02-12T12:09:20.443Z,9.63
2023-02-12T12:10:20.447Z,9.64
2023-02-12T12:11:20.412Z,9.80
2023-02-12T12:12:20.433Z,9.84
2023-02-12T12:13:20.414Z,9.90
2023-02-12T12:14:20.409Z,9.87
2023-02-12T12:15:20.384Z,9.76
2023-02-12T12:16:20.410Z,9.64
2023-02-12T12:17:20.400Z,9.59
2023-02-12T12:18:20.363Z,9.58
2023-02-12T12:19:20.321Z,9.42
2023-02-12T12:20:20.345Z,9.44
2023-02-12T12:21:20.350Z,9.58
2023-02-12T12:22:20.298Z,9.56
2023-02-12T12:23:20.286Z,9.51
2023-02-12T12:24:20.274Z,9.37
2023-02-12T12:25:20.294Z,9.33
2023-02-12T12:26:20.253Z,9.15
2023-02-12T12:27:20.260Z,8.99
2023-02-12T12:28:20.268Z,8.74
2023-02-12T12:29:20.233Z,8.57
2023-02-12T12:30:20.213Z,8.49
2023-02-12T12:31:20.277Z,8.45
2023-02-12T12:32:21.196Z,8.64
2023-02-12T12:33:20.177Z,8.61
2023-02-12T12:34:20.187Z,8.63
2023-02-12T12:35:20.140Z,8.56
2023-02-12T12:36:20.153Z,8.53
2023-02-12T12:37:20.151Z,8.72
2023-02-12T12:38:20.147Z,8.68
2023-02-12T12:39:52.020Z,8.74
2023-02-12T12:40:20.107Z,8.63
2023-02-12T12:41:20.113Z,8.77
2023-02-12T12:42:20.087Z,8.75
2023-02-12T12:43:20.093Z,8.77
2023-02-12T12:44:20.074Z,8.77
2023-02-12T12:45:20.061Z,8.77
2023-02-12T12:46:20.118Z,8.69
2023-02-12T12:47:20.018Z,8.89
2023-02-12T12:48:20.027Z,8.95
2023-02-12T12:49:20.005Z,9.03
2023-02-12T12:50:20.015Z,9.09
2023-02-12T12:51:19.997Z,9.02
2023-02-12T12:52:19.982Z,9.08
2023-02-12T12:53:19.962Z,9.12
2023-02-12T12:54:19.949Z,9.13
2023-02-12T12:55:19.962Z,9.19
2023-02-12T12:56:19.978Z,9.24
2023-02-12T12:57:19.910Z,9.12
2023-02-12T12:58:19.948Z,9.00
2023-02-12T12:59:19.909Z,9.08
2023-02-12T13:00:21.310Z,8.90
2023-02-12T13:01:20.894Z,8.81
2023-02-12T13:02:19.888Z,8.84
2023-02-12T13:03:19.866Z,8.95
2023-02-12T13:04:19.842Z,8.99
2023-02-12T13:05:19.830Z,9.03
2023-02-12T13:06:19.819Z,9.12
2023-02-12T13:07:19.800Z,9.13
2023-02-12T13:08:19.795Z,9.16
2023-02-12T13:09:19.792Z,9.36
2023-02-12T13:10:19.770Z,9.48
2023-02-12T13:11:19.753Z,9.40
2023-02-12T13:12:19.776Z,9.56
2023-02-12T13:13:19.746Z,9.70
2023-02-12T13:14:19.733Z,9.72
2023-02-12T13:15:19.716Z,9.76
2023-02-12T13:16:19.760Z,9.91
2023-02-12T13:17:19.688Z,9.92
2023-02-12T13:18:19.721Z,10.00